Time;durP1;ratioP1;P1;durP2;ratioP2;P2;SDS_P1;SDS_P2;PMS_P1;PMS_P2;Temp;Humidity;BMP_temperature;BMP_pressure;BME280_temperature;BME280_humidity;BME280_pressure;Samples;Min_cycle;Max_cycle;Signal;HPM_P1;HPM_P2
2023/12/20 00:00:20;;;;;;;7.13;5.03;;;;;;;24.68;32.11;99619.00;5054740;28;20391;-48
2023/12/20 00:02:46;;;;;;;6.88;4.72;;;;;;;24.67;32.18;99625.03;5052620;28;20083;-49
2023/12/20 00:05:13;;;;;;;7.60;5.20;;;;;;;24.66;31.91;99621.50;5046536;28;20032;-49
2023/12/20 00:07:38;;;;;;;7.10;5.00;;;;;;;24.67;31.92;99625.03;5049733;28;20033;-48
2023/12/20 00:10:04;;;;;;;6.70;4.63;;;;;;;24.66;32.00;99623.50;5050454;28;20031;-49
2023/12/20 00:12:29;;;;;;;6.78;4.72;;;;;;;24.67;32.20;99636.06;5052685;28;20029;-48
2023/12/20 00:14:55;;;;;;;6.60;4.53;;;;;;;24.65;32.06;99633.78;5055553;28;20021;-50
2023/12/20 00:17:20;;;;;;;6.60;4.40;;;;;;;24.65;32.05;99636.56;5053421;28;20031;-52
2023/12/20 00:19:45;;;;;;;6.60;4.68;;;;;;;24.64;32.06;99621.25;5054713;28;20686;-50
2023/12/20 00:22:11;;;;;;;6.20;4.13;;;;;;;24.63;32.00;99630.00;5055289;28;20029;-50
2023/12/20 00:24:36;;;;;;;6.63;4.45;;;;;;;24.64;32.20;99626.75;5051200;28;20016;-49
2023/12/20 00:27:02;;;;;;;6.40;4.25;;;;;;;24.63;32.13;99619.72;5059455;28;20027;-50
2023/12/20 00:29:27;;;;;;;6.10;4.13;;;;;;;24.62;32.26;99611.94;5051779;28;20029;-50
2023/12/20 00:31:53;;;;;;;6.22;4.10;;;;;;;24.62;32.22;99600.91;5057752;28;20024;-50
2023/12/20 00:34:18;;;;;;;6.43;4.13;;;;;;;24.64;32.09;99609.44;5050757;28;20035;-49
2023/12/20 00:36:43;;;;;;;6.90;4.30;;;;;;;24.62;32.12;99617.47;5052518;28;20029;-48
2023/12/20 00:39:09;;;;;;;6.22;4.00;;;;;;;24.61;32.12;99616.69;5057070;28;20036;-49
2023/12/20 00:41:34;;;;;;;6.00;3.80;;;;;;;24.64;31.97;99620.50;5053636;28;20070;-50
2023/12/20 00:43:59;;;;;;;5.93;3.75;;;;;;;24.63;32.09;99624.50;5051467;28;20025;-49
2023/12/20 00:46:25;;;;;;;6.38;4.00;;;;;;;24.62;32.07;99612.69;5047351;28;20021;-49
2023/12/20 00:48:50;;;;;;;5.93;3.83;;;;;;;24.64;32.02;99614.97;5058860;28;20357;-49
2023/12/20 00:51:15;;;;;;;6.22;3.72;;;;;;;24.64;32.18;99612.22;5057928;28;20032;-49
2023/12/20 00:53:41;;;;;;;6.07;3.85;;;;;;;24.65;32.18;99608.19;5047901;28;20036;-51
2023/12/20 00:56:06;;;;;;;6.57;3.90;;;;;;;24.64;32.05;99614.97;5053047;28;20029;-52
2023/12/20 00:58:32;;;;;;;6.10;3.75;;;;;;;24.62;32.07;99611.94;5052261;28;20530;-50
2023/12/20 01:00:58;;;;;;;6.15;3.88;;;;;;;24.62;32.17;99617.47;5052978;28;20027;-49
2023/12/20 01:03:23;;;;;;;5.88;3.58;;;;;;;24.61;32.08;99608.44;5050078;28;20021;-51
2023/12/20 01:05:48;;;;;;;5.82;3.72;;;;;;;24.63;32.18;99616.22;5051077;28;20021;-49
2023/12/20 01:08:14;;;;;;;5.65;3.40;;;;;;;24.59;32.11;99621.97;5051815;28;20504;-50
2023/12/20 01:10:40;;;;;;;5.43;3.40;;;;;;;24.60;32.14;99626.22;5046512;28;20091;-48
2023/12/20 01:13:05;;;;;;;5.38;3.33;;;;;;;24.60;32.11;99622.72;5052969;28;20473;-50
2023/12/20 01:15:31;;;;;;;5.30;3.40;;;;;;;24.60;32.03;99619.94;5048459;28;20025;-48
2023/12/20 01:17:58;;;;;;;5.60;3.25;;;;;;;24.58;32.08;99620.44;5043962;28;20036;-49
2023/12/20 01:20:23;;;;;;;5.85;3.20;;;;;;;24.57;32.28;99615.44;5059669;28;20032;-49
2023/12/20 01:22:49;;;;;;;6.03;3.50;;;;;;;24.59;32.16;99618.44;5043948;28;20384;-49
2023/12/20 01:25:14;;;;;;;5.30;3.28;;;;;;;24.60;32.11;99628.22;5051154;28;20078;-50
2023/12/20 01:27:39;;;;;;;5.22;2.95;;;;;;;24.60;32.27;99614.44;5042884;28;20025;-49
2023/12/20 01:30:05;;;;;;;5.65;3.15;;;;;;;24.60;32.20;99608.91;5043810;28;20063;-52
2023/12/20 01:32:31;;;;;;;5.20;2.90;;;;;;;24.59;32.24;99608.16;5054063;28;20016;-53
2023/12/20 01:34:56;;;;;;;5.00;2.85;;;;;;;24.61;32.08;99604.91;5051189;28;20025;-50
2023/12/20 01:37:23;;;;;;;5.32;3.03;;;;;;;24.62;32.07;99604.41;5052282;28;20024;-52
2023/12/20 01:39:49;;;;;;;5.70;3.08;;;;;;;24.61;32.27;99596.63;5043460;28;20032;-53
2023/12/20 01:42:14;;;;;;;5.40;3.15;;;;;;;24.59;31.96;99601.88;5040861;28;20037;-53
2023/12/20 01:44:39;;;;;;;5.10;2.70;;;;;;;24.56;32.17;99597.38;5054286;28;20021;-53
2023/12/20 01:47:05;;;;;;;4.88;2.60;;;;;;;24.58;32.24;99594.88;5045032;28;20032;-51
2023/12/20 01:49:30;;;;;;;5.15;2.85;;;;;;;24.57;32.36;99601.66;5028615;28;20037;-51
2023/12/20 01:51:55;;;;;;;5.05;2.70;;;;;;;24.58;32.33;99601.13;5041859;28;20392;-50
2023/12/20 01:54:21;;;;;;;5.22;2.90;;;;;;;24.57;32.15;99593.38;5044830;28;20024;-52
2023/12/20 01:56:46;;;;;;;4.90;2.60;;;;;;;24.55;32.30;99599.38;5050344;28;20074;-50
2023/12/20 01:59:11;;;;;;;4.78;2.63;;;;;;;24.56;32.42;99602.88;5054567;28;20025;-53
2023/12/20 02:01:37;;;;;;;4.95;2.67;;;;;;;24.56;32.30;99597.38;5045663;28;20484;-51
2023/12/20 02:04:02;;;;;;;4.93;2.60;;;;;;;24.56;32.22;99598.13;5046634;28;20039;-48
2023/12/20 02:06:30;;;;;;;4.45;2.40;;;;;;;24.57;32.25;99605.16;5038777;28;20028;-49
2023/12/20 02:08:55;;;;;;;4.90;2.53;;;;;;;24.58;32.33;99600.41;5053577;28;20387;-47
2023/12/20 02:11:21;;;;;;;5.13;2.65;;;;;;;24.60;32.21;99589.59;5048968;28;20027;-48
2023/12/20 02:13:46;;;;;;;4.63;2.50;;;;;;;24.58;32.30;99584.56;5034706;28;20021;-49
2023/12/20 02:16:11;;;;;;;5.10;2.40;;;;;;;24.56;32.28;99576.06;5049462;28;20047;-49
2023/12/20 02:18:37;;;;;;;4.78;2.60;;;;;;;24.61;32.13;99580.81;5052517;28;20020;-49
2023/12/20 02:21:04;;;;;;;4.30;2.40;;;;;;;24.58;32.27;99575.56;5045566;28;20040;-48
2023/12/20 02:23:30;;;;;;;4.70;2.50;;;;;;;24.58;32.18;99576.28;5051065;28;20024;-49
2023/12/20 02:25:55;;;;;;;4.32;2.22;;;;;;;24.58;32.17;99573.53;5047648;28;20032;-49
2023/12/20 02:28:21;;;;;;;4.40;2.30;;;;;;;24.56;32.22;99580.81;5048925;28;20081;-48
2023/12/20 02:30:47;;;;;;;4.85;2.20;;;;;;;24.57;32.34;99571.28;5051666;28;20112;-48
2023/12/20 02:33:12;;;;;;;4.32;2.17;;;;;;;24.58;32.35;99578.31;5049574;28;20028;-48
2023/12/20 02:35:37;;;;;;;4.95;2.40;;;;;;;24.57;32.40;99572.03;5044360;28;20021;-48
2023/12/20 02:38:03;;;;;;;4.55;2.28;;;;;;;24.57;32.16;99577.56;5039068;28;20036;-48
2023/12/20 02:40:28;;;;;;;4.10;2.00;;;;;;;24.58;32.33;99584.56;5047605;28;20462;-49
2023/12/20 02:42:53;;;;;;;4.70;2.33;;;;;;;24.57;32.34;99574.06;5052228;28;20033;-51
2023/12/20 02:45:19;;;;;;;4.80;2.30;;;;;;;24.57;32.33;99580.31;5049619;28;20666;-49
2023/12/20 02:47:44;;;;;;;4.20;2.20;;;;;;;24.57;32.31;99582.31;5047738;28;20021;-48
2023/12/20 02:50:09;;;;;;;3.92;1.95;;;;;;;24.57;32.17;99585.84;5051962;28;20264;-47
2023/12/20 02:52:35;;;;;;;4.30;2.20;;;;;;;24.58;32.31;99589.34;5050136;28;20632;-48
2023/12/20 02:55:00;;;;;;;4.50;2.17;;;;;;;24.57;32.31;99582.31;5052698;28;20025;-49
2023/12/20 02:57:26;;;;;;;4.25;2.10;;;;;;;24.57;32.21;99583.09;5055388;28;20074;-49
2023/12/20 02:59:51;;;;;;;4.07;1.95;;;;;;;24.56;32.40;99587.09;5048876;28;20034;-49
2023/12/20 03:02:16;;;;;;;4.55;2.28;;;;;;;24.56;32.37;99587.09;5055081;28;20482;-48
2023/12/20 03:04:42;;;;;;;4.10;2.10;;;;;;;24.58;32.29;99586.59;5052949;28;20024;-49
2023/12/20 03:07:07;;;;;;;4.18;1.90;;;;;;;24.59;32.38;99596.38;5058348;28;20476;-49
2023/12/20 03:09:32;;;;;;;3.80;1.80;;;;;;;24.59;32.27;99599.13;5050613;28;20039;-48
2023/12/20 03:11:58;;;;;;;4.20;2.00;;;;;;;24.58;32.20;99600.41;5055299;28;20036;-48
2023/12/20 03:14:23;;;;;;;4.15;1.95;;;;;;;24.57;32.27;99607.16;5052625;28;20032;-50
2023/12/20 03:16:49;;;;;;;3.88;1.98;;;;;;;24.56;32.18;99603.66;5055872;28;20550;-48
2023/12/20 03:19:15;;;;;;;3.67;1.77;;;;;;;24.58;32.29;99603.88;5049011;28;20037;-50
2023/12/20 03:21:41;;;;;;;4.00;1.80;;;;;;;24.59;32.30;99601.88;5055510;28;20036;-49
2023/12/20 03:24:06;;;;;;;4.13;1.80;;;;;;;24.55;32.36;99602.13;5048103;28;20036;-50
2023/12/20 03:26:31;;;;;;;4.13;1.95;;;;;;;24.57;32.15;99615.44;5042721;28;20039;-48
2023/12/20 03:28:57;;;;;;;4.10;1.80;;;;;;;24.57;32.28;99612.69;5049312;28;20538;-49
2023/12/20 03:31:22;;;;;;;3.83;1.90;;;;;;;24.57;32.27;99599.63;5055315;28;20025;-47
2023/12/20 03:33:47;;;;;;;4.13;1.92;;;;;;;24.54;32.31;99600.63;5055634;28;20031;-50
2023/12/20 03:36:13;;;;;;;4.35;1.90;;;;;;;24.60;32.32;99606.16;5056805;28;20024;-48
2023/12/20 03:38:38;;;;;;;3.63;1.80;;;;;;;24.58;32.34;99606.66;5050848;28;20033;-49
2023/12/20 03:41:04;;;;;;;3.55;1.80;;;;;;;24.59;32.27;99607.41;5052957;28;20044;-50
2023/12/20 03:43:29;;;;;;;4.05;1.80;;;;;;;24.60;32.36;99603.41;5052531;28;20117;-48
2023/12/20 03:45:54;;;;;;;3.85;1.70;;;;;;;24.58;32.33;99605.91;5044212;28;20013;-48
2023/12/20 03:48:20;;;;;;;3.95;1.75;;;;;;;24.58;32.31;99611.44;5053147;28;20022;-48
2023/12/20 03:50:45;;;;;;;3.35;1.60;;;;;;;24.59;32.30;99613.69;5052509;28;20033;-48
2023/12/20 03:53:11;;;;;;;3.88;1.80;;;;;;;24.61;32.44;99605.66;5047797;28;20429;-48
2023/12/20 03:55:36;;;;;;;3.22;1.63;;;;;;;24.59;32.34;99607.41;5047730;28;20029;-50
2023/12/20 03:58:01;;;;;;;3.70;1.67;;;;;;;24.59;32.34;99608.16;5053886;28;20025;-47
2023/12/20 04:00:27;;;;;;;3.78;1.60;;;;;;;24.59;32.21;99605.41;5051944;28;20029;-50
2023/12/20 04:02:52;;;;;;;4.10;1.80;;;;;;;24.60;32.35;99615.19;5053244;28;20023;-49
2023/12/20 04:05:17;;;;;;;3.33;1.58;;;;;;;24.60;32.26;99615.19;5051235;28;20028;-48
2023/12/20 04:07:43;;;;;;;3.35;1.58;;;;;;;24.58;32.48;99611.44;5042748;28;20028;-49
2023/12/20 04:10:09;;;;;;;3.35;1.50;;;;;;;24.59;32.40;99612.91;5053874;28;20036;-47
2023/12/20 04:12:34;;;;;;;4.00;1.70;;;;;;;24.58;32.29;99617.69;5052744;28;20017;-48
2023/12/20 04:14:59;;;;;;;3.22;1.60;;;;;;;24.59;32.30;99618.44;5050969;28;20419;-49
2023/12/20 04:17:25;;;;;;;3.50;1.80;;;;;;;24.57;32.35;99615.44;5053911;28;20028;-47
2023/12/20 04:19:50;;;;;;;2.85;1.40;;;;;;;24.51;32.33;99618.16;5042094;28;20029;-48
2023/12/20 04:22:17;;;;;;;3.47;1.60;;;;;;;24.50;32.36;99610.38;5053715;28;20039;-49
2023/12/20 04:24:42;;;;;;;3.63;1.73;;;;;;;24.50;32.34;99622.16;5052986;28;20511;-49
2023/12/20 04:27:08;;;;;;;4.55;1.60;;;;;;;24.47;32.47;99628.66;5041425;28;20029;-47
2023/12/20 04:29:34;;;;;;;3.28;1.58;;;;;;;24.44;32.38;99624.09;5049786;28;20383;-49
2023/12/20 04:31:59;;;;;;;3.03;1.33;;;;;;;24.41;32.37;99629.84;5045283;28;20021;-49
2023/12/20 04:34:24;;;;;;;2.78;1.30;;;;;;;24.41;32.68;99629.84;5049123;28;20025;-49
2023/12/20 04:36:50;;;;;;;2.95;1.40;;;;;;;24.41;32.49;99651.91;5049635;28;20024;-48
2023/12/20 04:39:15;;;;;;;3.83;1.45;;;;;;;24.41;32.46;99640.88;5045644;28;20032;-49
2023/12/20 04:41:40;;;;;;;3.40;1.40;;;;;;;24.37;32.63;99644.66;5047755;28;20033;-48
2023/12/20 04:44:06;;;;;;;3.15;1.40;;;;;;;24.37;32.32;99650.16;5045397;28;20078;-48
2023/12/20 04:46:31;;;;;;;8.43;1.60;;;;;;;24.38;32.48;99657.16;5046297;28;20083;-48
2023/12/20 04:48:57;;;;;;;3.95;1.75;;;;;;;24.39;32.51;99655.91;5048987;28;20181;-48
2023/12/20 04:51:22;;;;;;;4.00;1.30;;;;;;;24.40;32.66;99662.19;5037824;28;20473;-48
2023/12/20 04:53:47;;;;;;;3.90;1.50;;;;;;;24.38;32.62;99670.19;5040845;28;20025;-50
2023/12/20 04:56:13;;;;;;;4.00;1.35;;;;;;;24.36;32.68;99662.44;5053194;28;20025;-49
2023/12/20 04:58:38;;;;;;;4.13;1.60;;;;;;;24.36;32.65;99672.72;5052668;28;20086;-51
2023/12/20 05:01:05;;;;;;;4.32;1.40;;;;;;;24.36;32.58;99681.75;5052640;28;20036;-48
2023/12/20 05:03:30;;;;;;;3.43;1.40;;;;;;;24.36;32.78;99675.47;5032470;28;20044;-49
2023/12/20 05:05:55;;;;;;;3.00;1.30;;;;;;;24.38;32.63;99686.75;5043169;28;20033;-49
2023/12/20 05:08:21;;;;;;;3.67;1.50;;;;;;;24.40;32.73;99678.75;5047442;28;20025;-49
2023/12/20 05:10:46;;;;;;;3.05;1.17;;;;;;;24.39;32.70;99677.22;5051649;28;20360;-48
2023/12/20 05:13:11;;;;;;;2.90;1.50;;;;;;;24.34;32.69;99684.25;5061254;28;20028;-48
2023/12/20 05:15:37;;;;;;;4.03;1.45;;;;;;;24.36;32.63;99678.22;5049307;28;20073;-47
2023/12/20 05:18:02;;;;;;;5.13;1.70;;;;;;;24.38;32.79;99686.75;5054230;28;20401;-48
2023/12/20 05:20:28;;;;;;;3.90;1.45;;;;;;;24.35;32.74;99688.50;5053256;28;20037;-48
2023/12/20 05:22:53;;;;;;;3.13;1.40;;;;;;;24.34;32.79;99686.25;5056042;28;20025;-47
2023/12/20 05:25:18;;;;;;;3.95;1.25;;;;;;;24.29;32.96;99687.69;5053389;28;20038;-48
2023/12/20 05:27:44;;;;;;;3.88;1.35;;;;;;;24.36;32.89;99695.53;5055511;28;20430;-49
2023/12/20 05:30:10;;;;;;;3.88;1.38;;;;;;;24.38;32.87;99693.03;5050739;28;20028;-49
2023/12/20 05:32:35;;;;;;;3.75;1.30;;;;;;;24.37;32.87;99696.31;5049490;28;20020;-47
2023/12/20 05:35:01;;;;;;;3.33;1.30;;;;;;;24.39;32.67;99700.06;5049328;28;20520;-49
2023/12/20 05:37:26;;;;;;;3.20;1.25;;;;;;;24.43;32.81;99704.59;5050758;28;20036;-49
2023/12/20 05:39:51;;;;;;;2.92;1.30;;;;;;;24.45;32.77;99702.13;5055639;28;20027;-47
2023/12/20 05:42:17;;;;;;;2.78;1.35;;;;;;;24.44;32.80;99706.13;5045962;28;20090;-53
2023/12/20 05:44:43;;;;;;;4.25;1.40;;;;;;;24.48;32.72;99706.66;5048841;28;20048;-50
2023/12/20 05:47:08;;;;;;;3.25;1.40;;;;;;;24.51;32.78;99705.69;5047863;28;20035;-48
2023/12/20 05:49:34;;;;;;;3.28;1.40;;;;;;;24.51;32.64;99717.50;5049948;28;20029;-48
2023/12/20 05:51:59;;;;;;;3.75;1.45;;;;;;;24.51;33.32;99727.75;5046671;28;20025;-50
2023/12/20 05:54:25;;;;;;;4.07;1.63;;;;;;;24.55;33.37;99725.56;5047605;28;20396;-45
2023/12/20 05:56:50;;;;;;;4.88;1.60;;;;;;;24.62;33.62;99725.84;5045078;28;20017;-51
2023/12/20 05:59:16;;;;;;;7.15;1.80;;;;;;;24.60;33.75;99725.56;5047523;28;20036;-49
2023/12/20 06:01:41;;;;;;;6.97;1.38;;;;;;;24.63;33.81;99723.84;5050289;28;20029;-50
2023/12/20 06:04:06;;;;;;;3.47;1.27;;;;;;;24.67;34.17;99727.16;5046818;28;20131;-51
2023/12/20 06:06:32;;;;;;;9.85;2.40;;;;;;;24.65;34.22;99738.69;5048833;28;20472;-44
2023/12/20 06:08:58;;;;;;;4.70;1.30;;;;;;;24.72;33.95;99740.25;5040877;28;20025;-48
2023/12/20 06:11:23;;;;;;;3.67;1.42;;;;;;;24.73;33.71;99737.00;5046017;28;20075;-50
2023/12/20 06:13:51;;;;;;;4.80;1.40;;;;;;;24.75;33.89;99733.00;5051056;28;20056;-47
2023/12/20 06:16:17;;;;;;;3.08;1.30;;;;;;;24.79;33.78;99736.25;5053341;28;20047;-49
2023/12/20 06:18:43;;;;;;;5.30;1.45;;;;;;;24.75;33.74;99733.75;5052896;28;20020;-49
2023/12/20 06:21:12;;;;;;;3.33;1.38;;;;;;;24.80;33.46;99738.53;5054889;28;20383;-47
2023/12/20 06:23:37;;;;;;;4.18;1.50;;;;;;;24.81;33.58;99736.53;5047142;28;20025;-50
2023/12/20 06:26:03;;;;;;;3.72;1.35;;;;;;;24.81;33.48;99742.81;5050010;28;20404;-47
2023/12/20 06:28:28;;;;;;;5.07;1.50;;;;;;;24.80;33.39;99746.81;5048522;28;20024;-46
2023/12/20 06:30:54;;;;;;;3.45;1.35;;;;;;;24.80;33.64;99755.09;5051131;28;20025;-44
2023/12/20 06:33:22;;;;;;;4.88;1.33;;;;;;;24.83;33.42;99754.13;5046202;28;20024;-50
2023/12/20 06:35:47;;;;;;;3.33;1.40;;;;;;;24.86;33.56;99749.63;5044212;28;20029;-48
2023/12/20 06:38:12;;;;;;;3.25;1.40;;;;;;;24.89;33.38;99749.41;5051437;28;20027;-50
2023/12/20 06:40:38;;;;;;;4.00;1.30;;;;;;;24.86;33.51;99757.91;5052083;28;20021;-51
2023/12/20 06:43:03;;;;;;;4.45;1.35;;;;;;;24.84;33.49;99763.91;5049139;28;20411;-52
2023/12/20 06:45:28;;;;;;;3.33;1.35;;;;;;;24.89;33.59;99760.44;5052069;28;20618;-52
2023/12/20 06:47:54;;;;;;;2.70;1.30;;;;;;;24.89;33.43;99765.22;5047052;28;20044;-49
2023/12/20 06:50:20;;;;;;;3.20;1.30;;;;;;;24.88;33.64;99763.69;5050282;28;20056;-44
2023/12/20 06:52:45;;;;;;;3.97;1.65;;;;;;;24.88;33.65;99761.69;5048123;28;20667;-53
2023/12/20 06:55:11;;;;;;;3.42;1.10;;;;;;;24.88;33.55;99772.00;5050305;28;20024;-48
2023/12/20 06:57:36;;;;;;;3.97;1.15;;;;;;;24.89;33.41;99773.50;5045700;28;20040;-52
2023/12/20 07:00:02;;;;;;;2.83;1.27;;;;;;;24.89;33.43;99779.78;5047205;28;20107;-53
2023/12/20 07:02:30;;;;;;;3.08;1.20;;;;;;;24.89;33.56;99785.31;5048881;28;20136;-50
2023/12/20 07:04:55;;;;;;;2.38;1.15;;;;;;;24.93;33.67;99791.38;5050353;28;20021;-51
2023/12/20 07:07:21;;;;;;;2.42;1.20;;;;;;;24.88;33.49;99789.31;5046503;28;20029;-48
2023/12/20 07:09:46;;;;;;;3.08;1.35;;;;;;;24.90;33.41;99797.88;5045160;28;20050;-48
2023/12/20 07:12:11;;;;;;;2.53;1.23;;;;;;;24.89;32.87;99801.88;5049530;28;20021;-47
2023/12/20 07:14:37;;;;;;;3.35;1.30;;;;;;;24.85;33.09;99801.31;5044746;28;20025;-47
2023/12/20 07:17:02;;;;;;;4.03;1.45;;;;;;;24.81;33.14;99806.31;5046762;28;20029;-49
2023/12/20 07:19:28;;;;;;;4.60;1.52;;;;;;;24.79;33.34;99813.56;5043224;28;20573;-47
2023/12/20 07:21:53;;;;;;;3.28;1.50;;;;;;;24.73;33.08;99819.81;5048454;28;20031;-49
2023/12/20 07:24:19;;;;;;;5.00;1.77;;;;;;;24.70;33.23;99817.25;5053824;28;20468;-46
2023/12/20 07:26:44;;;;;;;5.50;1.60;;;;;;;24.67;33.28;99835.53;5047179;28;20024;-49
2023/12/20 07:29:09;;;;;;;5.72;1.70;;;;;;;24.64;33.42;99833.00;5047511;28;20043;-48
2023/12/20 07:31:35;;;;;;;4.03;1.52;;;;;;;24.62;33.20;99835.47;5040627;28;20032;-47
2023/12/20 07:34:00;;;;;;;3.97;1.60;;;;;;;24.62;33.25;99836.25;5044112;28;20033;-48
2023/12/20 07:36:26;;;;;;;3.85;1.60;;;;;;;24.59;33.31;99839.22;5056065;28;20029;-47
2023/12/20 07:38:51;;;;;;;4.32;1.90;;;;;;;24.59;33.19;99845.50;5049977;28;20032;-49
2023/12/20 07:41:17;;;;;;;4.50;1.88;;;;;;;24.59;33.28;99850.25;5052842;28;20033;-45
2023/12/20 07:43:42;;;;;;;5.25;1.70;;;;;;;24.57;33.13;99852.75;5052150;28;20482;-46
2023/12/20 07:46:08;;;;;;;4.25;1.70;;;;;;;24.57;33.17;99850.00;5048213;28;20039;-46
2023/12/20 07:48:36;;;;;;;4.40;1.70;;;;;;;24.56;33.19;99854.00;5051125;28;20043;-48
2023/12/20 07:51:02;;;;;;;3.38;1.60;;;;;;;24.55;33.19;99850.50;5052741;28;20056;-45
2023/12/20 07:53:28;;;;;;;3.25;1.50;;;;;;;24.56;33.24;99854.00;5055334;28;20020;-46
2023/12/20 07:55:53;;;;;;;4.10;1.55;;;;;;;24.55;33.19;99863.53;5048106;28;20628;-46
2023/12/20 07:58:19;;;;;;;3.50;1.58;;;;;;;24.55;33.20;99871.81;5057568;28;20031;-47
2023/12/20 08:00:44;;;;;;;3.35;1.50;;;;;;;24.55;33.26;99869.03;5056973;28;20016;-48
2023/12/20 08:03:09;;;;;;;3.13;1.40;;;;;;;24.56;33.17;99878.84;5049668;28;20016;-46
2023/12/20 08:05:35;;;;;;;4.47;1.60;;;;;;;24.54;33.30;99887.59;5050593;28;20508;-48
2023/12/20 08:08:00;;;;;;;3.60;1.50;;;;;;;24.52;33.34;99887.31;5052908;28;20078;-46
2023/12/20 08:10:25;;;;;;;3.88;1.50;;;;;;;24.55;33.27;99889.13;5049729;28;20075;-47
2023/12/20 08:12:51;;;;;;;3.97;1.60;;;;;;;24.53;33.28;99890.84;5050618;28;20032;-45
2023/12/20 08:15:16;;;;;;;4.25;1.50;;;;;;;24.53;33.32;99882.56;5047485;28;20108;-45
2023/12/20 08:17:42;;;;;;;4.28;1.60;;;;;;;24.53;33.58;99901.88;5051110;28;20548;-46
2023/12/20 08:20:07;;;;;;;3.03;1.40;;;;;;;24.53;33.51;99896.38;5048079;28;20028;-46
2023/12/20 08:22:32;;;;;;;3.92;1.50;;;;;;;24.52;33.37;99905.88;5054844;28;20058;-45
2023/12/20 08:24:58;;;;;;;3.03;1.33;;;;;;;24.49;33.34;99901.31;5048055;28;20542;-46
2023/12/20 08:27:25;;;;;;;3.50;1.50;;;;;;;24.44;33.35;99910.28;5053617;28;20023;-46
2023/12/20 08:29:51;;;;;;;3.70;1.42;;;;;;;24.48;33.36;99914.38;5044495;28;20024;-45
2023/12/20 08:32:16;;;;;;;3.03;1.30;;;;;;;24.50;33.21;99909.13;5052559;28;20028;-48
2023/12/20 08:34:41;;;;;;;3.35;1.42;;;;;;;24.54;33.34;99908.91;5047687;28;20603;-48
2023/12/20 08:37:07;;;;;;;4.65;1.55;;;;;;;24.48;33.46;99902.56;5048262;28;20040;-45
2023/12/20 08:39:33;;;;;;;5.65;1.70;;;;;;;24.38;33.40;99902.69;5048789;28;20028;-45
2023/12/20 08:41:58;;;;;;;5.97;1.80;;;;;;;24.44;33.60;99899.25;5051078;28;20020;-46
2023/12/20 08:44:24;;;;;;;4.95;1.60;;;;;;;24.41;33.41;99905.72;5045681;28;20089;-46
2023/12/20 08:46:49;;;;;;;4.55;1.63;;;;;;;24.43;33.30;99908.78;5047869;28;20024;-46
2023/12/20 08:49:15;;;;;;;3.80;1.60;;;;;;;24.44;33.28;99910.28;5044981;28;20029;-47
2023/12/20 08:51:41;;;;;;;5.18;1.42;;;;;;;24.48;33.20;99908.09;5046181;28;20036;-49
2023/12/20 08:54:07;;;;;;;4.78;1.52;;;;;;;24.47;33.20;99920.38;5042567;28;20112;-43
2023/12/20 08:56:33;;;;;;;6.85;1.70;;;;;;;24.48;33.42;99922.66;5048416;28;20044;-48
2023/12/20 08:58:59;;;;;;;4.97;1.50;;;;;;;24.54;33.63;99914.44;5046734;28;20480;-47
2023/12/20 09:01:24;;;;;;;4.20;1.55;;;;;;;24.55;33.72;99915.97;5052242;28;20060;-47
2023/12/20 09:03:49;;;;;;;4.20;1.70;;;;;;;24.55;33.79;99915.97;5056090;28;20023;-51
2023/12/20 09:06:15;;;;;;;5.43;1.67;;;;;;;24.61;33.61;99920.28;5048437;28;20037;-52
2023/12/20 09:08:41;;;;;;;3.67;1.60;;;;;;;24.58;34.00;99921.25;5053898;28;20025;-50
2023/12/20 09:11:06;;;;;;;4.40;1.50;;;;;;;24.59;33.86;99922.00;5049861;28;20040;-50
2023/12/20 09:13:32;;;;;;;4.05;1.52;;;;;;;24.61;33.95;99925.03;5048352;28;20051;-48
2023/12/20 09:15:57;;;;;;;3.63;1.35;;;;;;;24.62;33.98;99921.81;4149207;28;10000055;-46
2023/12/20 09:18:23;;;;;;;4.45;1.38;;;;;;;24.63;33.73;99914.28;4975070;28;20106;-47
2023/12/20 09:20:48;;;;;;;4.05;1.60;;;;;;;24.65;33.85;99917.31;4109050;28;10000747;-48
2023/12/20 09:23:13;;;;;;;3.42;1.45;;;;;;;24.71;33.86;99924.44;4975978;28;20027;-48
2023/12/20 09:25:39;;;;;;;3.63;1.48;;;;;;;24.71;33.75;99918.16;4110077;28;10001426;-48
2023/12/20 09:28:04;;;;;;;3.42;1.60;;;;;;;24.71;33.75;99923.66;4980020;28;20433;-51
2023/12/20 09:30:30;;;;;;;3.47;1.60;;;;;;;24.73;33.58;99926.69;4977522;28;20025;-47
2023/12/20 09:32:55;;;;;;;4.25;1.55;;;;;;;24.73;33.75;99938.50;4976960;28;20490;-50
2023/12/20 09:35:20;;;;;;;4.03;1.40;;;;;;;24.75;33.83;99934.50;4977614;28;20081;-49
2023/12/20 09:37:46;;;;;;;5.32;1.40;;;;;;;24.76;33.75;99939.53;4978421;28;20406;-49
2023/12/20 09:40:12;;;;;;;2.97;1.40;;;;;;;24.74;33.85;99939.25;4974205;28;20022;-52
2023/12/20 09:42:45;;;;;;;3.20;1.40;;;;;;;24.73;33.86;99941.25;4978367;28;20035;-49
2023/12/20 09:45:10;;;;;;;5.28;1.45;;;;;;;24.73;33.76;99934.97;4977198;28;20037;-49
2023/12/20 09:47:36;;;;;;;6.10;1.65;;;;;;;24.79;33.77;99935.78;4962536;28;20030;-51
2023/12/20 09:50:02;;;;;;;4.20;1.67;;;;;;;24.81;33.64;99941.56;4980546;28;20039;-52
2023/12/20 09:52:36;;;;;;;3.85;1.75;;;;;;;24.82;33.85;99934.81;4929591;28;10000476;-48
2023/12/20 09:55:05;;;;;;;6.88;2.00;;;;;;;24.83;33.79;99941.84;4457472;28;10000830;-47
2023/12/20 09:57:31;;;;;;;5.88;1.88;;;;;;;24.86;33.59;99943.66;4980551;28;20745;-49
2023/12/20 09:59:56;;;;;;;5.18;1.80;;;;;;;24.83;33.62;99941.84;4984622;28;20034;-54
2023/12/20 10:02:21;;;;;;;4.50;1.85;;;;;;;24.80;33.60;99951.09;4979274;28;20028;-48
2023/12/20 10:04:47;;;;;;;5.40;1.80;;;;;;;24.82;33.48;99950.63;4995039;28;20026;-50
2023/12/20 10:07:13;;;;;;;4.97;1.80;;;;;;;24.91;33.30;99954.00;4981553;28;20094;-44
2023/12/20 10:09:38;;;;;;;4.55;1.85;;;;;;;24.92;33.30;99954.75;4978872;28;20026;-47
2023/12/20 10:12:05;;;;;;;4.43;1.73;;;;;;;24.94;33.36;99955.81;4980215;28;20148;-40
2023/12/20 10:14:30;;;;;;;6.15;1.77;;;;;;;24.95;33.53;99953.81;4999496;28;20363;-45
2023/12/20 10:17:02;;;;;;;3.80;1.65;;;;;;;24.90;33.07;99946.19;4981546;28;20109;-50
2023/12/20 10:19:27;;;;;;;4.13;1.77;;;;;;;24.80;33.30;99931.78;4984004;28;20117;-50
2023/12/20 10:21:53;;;;;;;5.82;1.90;;;;;;;24.69;32.26;99937.94;4983282;28;20029;-48
2023/12/20 10:24:18;;;;;;;3.67;1.73;;;;;;;24.69;32.95;99929.66;4984509;28;20023;-51
2023/12/20 10:26:43;;;;;;;3.78;1.70;;;;;;;24.59;33.02;99931.03;4979058;28;20546;-47
2023/12/20 10:29:09;;;;;;;9.93;2.80;;;;;;;24.61;32.92;99927.81;4982464;28;20038;-49
2023/12/20 10:31:35;;;;;;;5.25;2.47;;;;;;;24.68;32.90;99919.09;4130795;28;10000926;-45
2023/12/20 10:34:01;;;;;;;8.50;2.80;;;;;;;24.68;33.03;99927.38;4985378;28;20113;-47
2023/12/20 10:36:27;;;;;;;6.53;2.33;;;;;;;24.68;32.88;99925.38;4982254;28;20174;-47
2023/12/20 10:38:53;;;;;;;5.15;2.10;;;;;;;24.69;32.87;99928.91;4984051;28;20104;-46
2023/12/20 10:41:28;;;;;;;7.07;2.50;;;;;;;24.69;32.68;99920.63;4980671;28;20039;-46
2023/12/20 10:44:04;;;;;;;4.22;1.92;;;;;;;24.67;32.86;99917.59;4981277;28;20026;-49
2023/12/20 10:46:30;;;;;;;5.80;1.83;;;;;;;24.65;32.91;99914.56;4990649;28;20031;-46
2023/12/20 10:48:56;;;;;;;7.32;2.10;;;;;;;24.64;32.79;99904.75;4983355;28;20018;-46
2023/12/20 10:51:22;;;;;;;4.78;2.20;;;;;;;24.64;32.88;99913.78;4986172;28;20402;-46
2023/12/20 10:53:48;;;;;;;6.43;2.25;;;;;;;24.66;32.87;99907.78;4983182;28;20025;-46
2023/12/20 10:56:16;;;;;;;4.15;1.75;;;;;;;24.67;32.75;99901.03;4985674;28;20033;-46
2023/12/20 10:58:43;;;;;;;4.57;2.15;;;;;;;24.69;32.77;99906.81;4982346;28;20019;-46
2023/12/20 11:01:09;;;;;;;5.68;2.00;;;;;;;24.68;32.64;99908.06;4985231;28;20054;-46
2023/12/20 11:03:35;;;;;;;3.80;1.85;;;;;;;24.69;32.79;99904.06;4305337;28;10000880;-46
2023/12/20 11:06:19;;;;;;;4.67;2.10;;;;;;;24.70;32.64;99905.59;4980262;28;20121;-45
2023/12/20 11:08:54;;;;;;;3.58;1.80;;;;;;;24.67;32.74;99901.78;4979721;28;20092;-44
2023/12/20 11:11:22;;;;;;;4.88;1.85;;;;;;;24.91;32.67;99896.03;4983345;28;20026;-55
2023/12/20 11:13:55;;;;;;;4.40;1.90;;;;;;;24.81;33.02;99894.66;4978333;28;20625;-54
2023/12/20 11:16:21;;;;;;;4.18;1.95;;;;;;;24.78;33.23;99894.88;4976611;28;20486;-57
2023/12/20 11:18:46;;;;;;;4.53;1.88;;;;;;;24.79;33.08;99886.09;4984995;28;20072;-51
2023/12/20 11:21:13;;;;;;;5.32;1.90;;;;;;;24.76;33.24;99881.56;5007013;28;20702;-48
2023/12/20 11:23:39;;;;;;;5.38;2.78;;;;;;;24.77;33.20;99885.84;4977360;28;20038;-55